createdAt,value
2019-03-23T00:01:43.445Z,99.90
2019-03-23T00:04:12.348Z,99.90
2019-03-23T00:06:41.377Z,99.90
2019-03-23T00:09:10.554Z,99.90
2019-03-23T00:11:39.782Z,99.90
2019-03-23T00:14:09.058Z,99.90
2019-03-23T00:16:38.036Z,99.90
2019-03-23T00:19:07.034Z,99.90
2019-03-23T00:21:36.187Z,99.90
2019-03-23T00:24:04.916Z,99.90
2019-03-23T00:26:35.804Z,99.90
2019-03-23T00:29:04.989Z,99.90
2019-03-23T00:31:34.360Z,99.90
2019-03-23T00:34:03.156Z,99.90
2019-03-23T00:36:41.016Z,99.90
2019-03-23T00:39:04.864Z,99.90
2019-03-23T00:41:33.905Z,99.90
2019-03-23T00:44:03.174Z,99.90
2019-03-23T00:46:32.036Z,99.90
2019-03-23T00:49:01.166Z,99.90
2019-03-23T00:51:30.979Z,99.90
2019-03-23T00:54:00.273Z,99.90
2019-03-23T00:56:30.185Z,99.90
2019-03-23T00:58:59.161Z,99.90
2019-03-23T01:01:28.801Z,99.90
2019-03-23T01:03:57.969Z,99.90
2019-03-23T01:06:26.858Z,99.90
2019-03-23T01:08:55.735Z,99.90
2019-03-23T01:11:24.477Z,99.90
2019-03-23T01:13:53.685Z,99.90
2019-03-23T01:16:23.306Z,99.90
2019-03-23T01:18:52.805Z,99.90
2019-03-23T01:21:21.556Z,99.90
2019-03-23T01:23:50.319Z,99.90
2019-03-23T01:26:19.301Z,99.90
2019-03-23T01:28:48.436Z,99.90
2019-03-23T01:31:18.755Z,99.90
2019-03-23T01:33:47.977Z,99.90
2019-03-23T01:36:17.184Z,99.90
2019-03-23T01:38:47.198Z,99.90
2019-03-23T01:41:16.163Z,99.90
2019-03-23T01:43:45.138Z,99.90
2019-03-23T01:46:13.866Z,99.90
2019-03-23T01:48:42.620Z,99.90
2019-03-23T01:51:12.229Z,99.90
2019-03-23T01:53:41.631Z,99.90
2019-03-23T01:56:10.906Z,99.90
2019-03-23T01:58:40.028Z,99.90
2019-03-23T02:01:09.262Z,99.90
2019-03-23T02:03:38.986Z,99.90
2019-03-23T02:06:07.921Z,99.90
2019-03-23T02:08:37.731Z,99.90
2019-03-23T02:11:06.923Z,99.90
2019-03-23T02:13:38.418Z,99.90
2019-03-23T02:16:07.597Z,99.90
2019-03-23T02:18:36.506Z,99.90
2019-03-23T02:21:06.419Z,99.90
2019-03-23T02:23:35.525Z,99.90
2019-03-23T02:26:23.188Z,99.90
2019-03-23T02:28:52.365Z,99.90
2019-03-23T02:31:21.120Z,99.90
2019-03-23T02:33:49.982Z,99.90
2019-03-23T02:36:21.296Z,99.90
2019-03-23T02:38:50.149Z,99.90
2019-03-23T02:41:18.967Z,99.90
2019-03-23T02:43:47.845Z,99.90
2019-03-23T02:46:17.026Z,99.90
2019-03-23T02:48:46.848Z,99.90
2019-03-23T02:51:15.483Z,99.90
2019-03-23T02:53:44.378Z,99.90
2019-03-23T02:56:14.351Z,99.90
2019-03-23T02:58:43.469Z,99.90
2019-03-23T03:01:12.516Z,99.90
2019-03-23T03:03:43.012Z,99.90
2019-03-23T03:06:13.113Z,99.90
2019-03-23T03:08:42.378Z,99.90
2019-03-23T03:11:11.729Z,99.90
2019-03-23T03:13:41.189Z,99.90
2019-03-23T03:16:10.185Z,99.90
2019-03-23T03:18:39.883Z,99.90
2019-03-23T03:21:08.659Z,99.90
2019-03-23T03:23:37.673Z,99.90
2019-03-23T03:26:06.761Z,99.90
2019-03-23T03:28:35.850Z,99.90
2019-03-23T03:31:04.666Z,99.90
2019-03-23T03:33:33.444Z,99.90
2019-03-23T03:36:02.175Z,99.90
2019-03-23T03:38:31.237Z,99.90
2019-03-23T03:41:00.287Z,99.90
2019-03-23T03:43:30.199Z,99.90
2019-03-23T03:45:59.227Z,99.90
2019-03-23T03:48:28.130Z,99.90
2019-03-23T03:50:58.216Z,99.90
2019-03-23T03:53:27.115Z,99.90
2019-03-23T03:55:56.433Z,99.90
2019-03-23T03:58:25.487Z,99.90
2019-03-23T04:00:54.391Z,99.90
2019-03-23T04:03:23.294Z,99.90
2019-03-23T04:05:52.367Z,99.90
2019-03-23T04:08:21.401Z,99.90
2019-03-23T04:10:50.221Z,99.90
2019-03-23T04:13:20.673Z,99.90
2019-03-23T04:15:50.993Z,99.90
2019-03-23T04:18:19.870Z,99.90
2019-03-23T04:20:48.986Z,99.90
2019-03-23T04:23:19.827Z,99.90
2019-03-23T04:25:48.741Z,99.90
2019-03-23T04:28:17.732Z,99.90
2019-03-23T04:30:47.131Z,99.90
2019-03-23T04:33:16.500Z,99.90
2019-03-23T04:35:45.470Z,99.90
2019-03-23T04:38:22.702Z,99.90
2019-03-23T04:40:46.520Z,99.90
2019-03-23T04:43:15.665Z,99.90
2019-03-23T04:45:45.941Z,99.90
2019-03-23T04:48:15.474Z,99.90
2019-03-23T04:50:44.325Z,99.90
2019-03-23T04:53:13.071Z,99.90
2019-03-23T04:55:42.768Z,99.90
2019-03-23T04:58:12.217Z,99.90
2019-03-23T05:00:41.559Z,99.90
2019-03-23T05:03:10.320Z,99.90
2019-03-23T05:05:39.526Z,99.90
2019-03-23T05:08:08.791Z,99.90
2019-03-23T05:10:37.594Z,99.90
2019-03-23T05:13:07.491Z,99.90
2019-03-23T05:15:36.707Z,99.90
2019-03-23T05:18:05.990Z,99.90
2019-03-23T05:20:35.011Z,99.90
2019-03-23T05:23:04.175Z,99.90
2019-03-23T05:25:33.290Z,99.90
2019-03-23T05:28:02.827Z,99.90
2019-03-23T05:30:32.014Z,99.90
2019-03-23T05:33:02.497Z,99.90
2019-03-23T05:35:31.975Z,99.90
2019-03-23T05:38:01.240Z,99.90
2019-03-23T05:40:30.819Z,99.90
2019-03-23T05:42:59.956Z,99.90
2019-03-23T05:45:29.340Z,99.90
2019-03-23T05:47:58.351Z,99.90
2019-03-23T05:50:28.744Z,99.90
2019-03-23T05:52:58.220Z,99.90
2019-03-23T05:55:27.551Z,99.90
2019-03-23T05:57:56.928Z,99.90
2019-03-23T06:00:29.565Z,99.90
2019-03-23T06:02:58.510Z,99.90
2019-03-23T06:05:27.316Z,99.90
2019-03-23T06:07:56.127Z,99.90
2019-03-23T06:10:29.037Z,99.90
2019-03-23T06:12:59.749Z,99.90
2019-03-23T06:15:31.554Z,99.90
2019-03-23T06:18:00.820Z,99.90
2019-03-23T06:20:30.195Z,99.90
2019-03-23T06:22:59.686Z,99.90
2019-03-23T06:25:32.550Z,99.90
2019-03-23T06:28:01.665Z,99.90
2019-03-23T06:30:31.210Z,99.90
2019-03-23T06:33:01.000Z,99.90
2019-03-23T06:35:32.543Z,99.90
2019-03-23T06:38:01.728Z,99.90
2019-03-23T06:40:36.895Z,99.90
2019-03-23T06:43:06.586Z,99.90
2019-03-23T06:45:36.038Z,99.90
2019-03-23T06:48:04.975Z,99.90
2019-03-23T06:50:36.548Z,99.90
2019-03-23T06:53:05.309Z,99.90
2019-03-23T06:55:34.549Z,99.90
2019-03-23T06:58:04.217Z,99.90
2019-03-23T07:00:33.533Z,99.90
2019-03-23T07:03:02.503Z,99.90
2019-03-23T07:05:32.079Z,99.90
2019-03-23T07:08:01.582Z,99.90
2019-03-23T07:10:32.153Z,99.90
2019-03-23T07:13:01.197Z,99.90
2019-03-23T07:15:30.486Z,99.90
2019-03-23T07:18:00.671Z,99.90
2019-03-23T07:20:30.671Z,99.90
2019-03-23T07:22:59.851Z,99.90
2019-03-23T07:25:29.162Z,99.90
2019-03-23T07:27:58.336Z,99.90
2019-03-23T07:30:27.175Z,99.90
2019-03-23T07:32:55.826Z,99.90
2019-03-23T07:35:25.085Z,99.90
2019-03-23T07:37:53.893Z,94.40
2019-03-23T07:40:23.333Z,87.50
2019-03-23T07:42:52.104Z,83.10
2019-03-23T07:45:21.191Z,80.80
2019-03-23T07:47:50.781Z,74.10
2019-03-23T07:50:19.678Z,69.50
2019-03-23T07:52:48.657Z,66.90
2019-03-23T07:55:17.792Z,65.00
2019-03-23T07:57:46.740Z,66.00
2019-03-23T08:00:18.258Z,70.20
2019-03-23T08:02:47.332Z,70.10
2019-03-23T08:05:16.528Z,70.30
2019-03-23T08:07:47.485Z,71.40
2019-03-23T08:10:29.658Z,72.40
2019-03-23T08:12:58.769Z,70.40
2019-03-23T08:15:28.099Z,66.80
2019-03-23T08:17:59.332Z,66.50
2019-03-23T08:20:28.214Z,67.20
2019-03-23T08:22:58.297Z,69.30
2019-03-23T08:25:30.241Z,67.00
2019-03-23T08:28:01.439Z,69.20
2019-03-23T08:30:30.512Z,70.20
2019-03-23T08:32:59.543Z,63.50
2019-03-23T08:35:29.149Z,62.10
2019-03-23T08:37:58.415Z,59.50
2019-03-23T08:40:35.659Z,57.30
2019-03-23T08:43:04.911Z,58.00
2019-03-23T08:45:34.607Z,60.50
2019-03-23T08:48:03.771Z,60.30
2019-03-23T08:50:33.139Z,58.90
2019-03-23T08:53:03.184Z,58.50
2019-03-23T08:55:33.801Z,57.20
2019-03-23T08:58:03.090Z,57.10
2019-03-23T09:00:32.578Z,54.10
2019-03-23T09:03:03.757Z,53.10
2019-03-23T09:05:33.711Z,55.00
2019-03-23T09:08:03.210Z,55.30
2019-03-23T09:10:34.875Z,53.60
2019-03-23T09:13:04.286Z,52.70
2019-03-23T09:15:34.364Z,53.20
2019-03-23T09:18:04.471Z,52.40
2019-03-23T09:20:34.334Z,51.50
2019-03-23T09:23:03.923Z,51.20
2019-03-23T09:25:34.511Z,49.00
2019-03-23T09:28:03.616Z,47.60
2019-03-23T09:30:33.309Z,47.80
2019-03-23T09:33:02.361Z,48.50
2019-03-23T09:35:31.892Z,47.60
2019-03-23T09:38:01.423Z,48.00
2019-03-23T09:40:30.663Z,49.30
2019-03-23T09:42:59.566Z,48.90
2019-03-23T09:45:29.377Z,47.50
2019-03-23T09:47:58.448Z,48.90
2019-03-23T09:50:27.373Z,48.00
2019-03-23T09:52:56.809Z,46.00
2019-03-23T09:55:28.573Z,44.50
2019-03-23T09:57:56.926Z,44.40
2019-03-23T10:00:25.704Z,43.30
2019-03-23T10:02:56.630Z,43.50
2019-03-23T10:05:29.729Z,44.20
2019-03-23T10:07:58.478Z,45.00
2019-03-23T10:10:27.922Z,43.30
2019-03-23T10:12:56.911Z,43.10
2019-03-23T10:15:26.402Z,44.60
2019-03-23T10:17:55.850Z,44.80
2019-03-23T10:20:24.638Z,44.00
2019-03-23T10:22:53.662Z,43.40
2019-03-23T10:25:23.223Z,41.90
2019-03-23T10:27:52.007Z,41.90
2019-03-23T10:30:24.557Z,43.10
2019-03-23T10:32:54.292Z,41.70
2019-03-23T10:35:23.469Z,41.60
2019-03-23T10:37:52.233Z,43.20
2019-03-23T10:40:31.902Z,46.00
2019-03-23T10:42:54.078Z,46.50
2019-03-23T10:45:23.069Z,46.20
2019-03-23T10:47:52.356Z,44.40
2019-03-23T10:50:21.496Z,45.90
2019-03-23T10:52:51.030Z,47.70
2019-03-23T10:55:19.829Z,46.70
2019-03-23T10:57:48.814Z,46.00
2019-03-23T11:00:17.501Z,46.20
2019-03-23T11:02:47.275Z,46.90
2019-03-23T11:05:16.695Z,45.90
2019-03-23T11:07:46.682Z,46.20
2019-03-23T11:10:15.394Z,43.50
2019-03-23T11:12:44.577Z,44.60
2019-03-23T11:15:13.454Z,44.40
2019-03-23T11:17:45.210Z,44.90
2019-03-23T11:20:16.431Z,49.00
2019-03-23T11:22:45.335Z,48.00
2019-03-23T11:25:14.851Z,49.80
2019-03-23T11:27:43.712Z,51.50
2019-03-23T11:30:13.566Z,55.00
2019-03-23T11:32:42.483Z,55.60
2019-03-23T11:35:11.638Z,55.40
2019-03-23T11:37:40.938Z,59.70
2019-03-23T11:40:11.032Z,57.60
2019-03-23T11:42:49.398Z,58.80
2019-03-23T11:45:11.188Z,60.90
2019-03-23T11:47:40.547Z,61.80
2019-03-23T11:50:10.022Z,61.90
2019-03-23T11:52:38.960Z,62.40
2019-03-23T11:55:08.432Z,62.80
2019-03-23T11:57:38.389Z,62.90
2019-03-23T12:00:09.869Z,64.80
2019-03-23T12:02:38.855Z,66.80
2019-03-23T12:05:09.475Z,66.50
2019-03-23T12:07:38.439Z,66.40
2019-03-23T12:10:10.836Z,70.70
2019-03-23T12:12:45.473Z,70.20
2019-03-23T12:15:15.588Z,69.30
2019-03-23T12:17:45.651Z,70.40
2019-03-23T12:20:16.298Z,73.30
2019-03-23T12:22:45.755Z,72.90
2019-03-23T12:25:14.872Z,73.80
2019-03-23T12:27:45.550Z,72.80
2019-03-23T12:30:15.671Z,77.00
2019-03-23T12:32:46.791Z,75.90
2019-03-23T12:35:16.449Z,77.30
2019-03-23T12:37:45.641Z,72.80
2019-03-23T12:40:16.324Z,72.80
2019-03-23T12:42:45.277Z,71.40
2019-03-23T12:45:15.378Z,72.50
2019-03-23T12:47:45.271Z,70.00
2019-03-23T12:50:14.855Z,68.40
2019-03-23T12:52:43.810Z,67.70
2019-03-23T12:55:13.298Z,67.10
2019-03-23T12:57:42.779Z,68.50
2019-03-23T13:00:12.921Z,70.40
2019-03-23T13:02:41.983Z,68.10
2019-03-23T13:05:11.115Z,66.00
2019-03-23T13:07:40.753Z,63.70
2019-03-23T13:10:11.972Z,66.30
2019-03-23T13:12:41.202Z,64.80
2019-03-23T13:15:10.784Z,64.20
2019-03-23T13:17:41.029Z,69.10
2019-03-23T13:20:10.426Z,69.60
2019-03-23T13:22:39.757Z,66.30
2019-03-23T13:25:09.638Z,68.40
2019-03-23T13:27:39.052Z,69.20
2019-03-23T13:30:09.508Z,67.30
2019-03-23T13:32:42.864Z,65.40
2019-03-23T13:35:12.105Z,68.10
2019-03-23T13:37:41.339Z,63.90
2019-03-23T13:40:12.628Z,62.50
2019-03-23T13:42:41.938Z,61.30
2019-03-23T13:45:12.100Z,61.40
2019-03-23T13:47:41.070Z,62.60
2019-03-23T13:50:11.633Z,60.80
2019-03-23T13:52:41.013Z,60.90
2019-03-23T13:55:24.366Z,64.70
2019-03-23T13:57:53.403Z,60.90
2019-03-23T14:00:23.259Z,61.80
2019-03-23T14:02:52.859Z,62.20
2019-03-23T14:05:21.594Z,61.60
2019-03-23T14:07:50.398Z,60.10
2019-03-23T14:10:19.274Z,63.00
2019-03-23T14:12:48.236Z,62.30
2019-03-23T14:15:17.076Z,62.40
2019-03-23T14:17:46.600Z,62.60
2019-03-23T14:20:15.668Z,62.50
2019-03-23T14:22:47.747Z,62.20
2019-03-23T14:25:16.656Z,63.30
2019-03-23T14:27:45.561Z,61.60
2019-03-23T14:30:14.344Z,60.20
2019-03-23T14:32:43.762Z,62.60
2019-03-23T14:35:13.421Z,64.00
2019-03-23T14:37:42.225Z,65.10
2019-03-23T14:40:11.420Z,64.20
2019-03-23T14:42:40.741Z,63.60
2019-03-23T14:45:09.793Z,63.10
2019-03-23T14:47:40.840Z,64.30
2019-03-23T14:50:12.794Z,66.80
2019-03-23T14:52:42.057Z,66.70
2019-03-23T14:55:11.259Z,65.00
2019-03-23T14:57:41.390Z,66.50
2019-03-23T15:00:12.863Z,66.00
2019-03-23T15:02:43.493Z,65.40
2019-03-23T15:05:13.378Z,65.00
2019-03-23T15:07:47.082Z,65.70
2019-03-23T15:10:17.711Z,68.30
2019-03-23T15:12:46.743Z,65.80
2019-03-23T15:15:17.015Z,65.30
2019-03-23T15:17:48.995Z,67.00
2019-03-23T15:20:18.289Z,66.30
2019-03-23T15:22:47.778Z,66.60
2019-03-23T15:25:17.259Z,67.70
2019-03-23T15:27:46.067Z,66.90
2019-03-23T15:30:15.084Z,67.80
2019-03-23T15:32:43.942Z,68.30
2019-03-23T15:35:12.710Z,69.60
2019-03-23T15:37:41.594Z,67.90
2019-03-23T15:40:11.022Z,67.30
2019-03-23T15:42:40.185Z,67.10
2019-03-23T15:45:11.390Z,67.80
2019-03-23T15:47:40.293Z,67.20
2019-03-23T15:50:11.174Z,68.10
2019-03-23T15:52:40.138Z,67.60
2019-03-23T15:55:10.328Z,67.70
2019-03-23T15:57:39.198Z,67.70
2019-03-23T16:00:09.607Z,69.50
2019-03-23T16:02:39.157Z,68.60
2019-03-23T16:05:08.831Z,68.10
2019-03-23T16:07:37.611Z,70.00
2019-03-23T16:10:07.444Z,70.40
2019-03-23T16:12:37.732Z,71.10
2019-03-23T16:15:09.446Z,71.20
2019-03-23T16:17:39.011Z,73.40
2019-03-23T16:20:10.160Z,71.00
2019-03-23T16:22:41.748Z,72.10
2019-03-23T16:25:12.318Z,73.10
2019-03-23T16:27:41.185Z,73.10
2019-03-23T16:30:16.257Z,74.20
2019-03-23T16:32:45.180Z,76.00
2019-03-23T16:35:14.527Z,74.20
2019-03-23T16:37:43.319Z,73.30
2019-03-23T16:40:12.671Z,75.50
2019-03-23T16:42:45.654Z,72.50
2019-03-23T16:45:14.347Z,74.40
2019-03-23T16:47:43.308Z,75.10
2019-03-23T16:50:12.802Z,76.50
2019-03-23T16:52:41.868Z,76.90
2019-03-23T16:55:10.883Z,78.80
2019-03-23T16:57:41.501Z,81.20
2019-03-23T17:00:12.908Z,81.70
2019-03-23T17:02:41.663Z,84.80
2019-03-23T17:05:10.546Z,89.70
2019-03-23T17:07:39.775Z,91.10
2019-03-23T17:10:31.764Z,91.90
2019-03-23T17:13:00.963Z,92.20
2019-03-23T17:15:30.123Z,94.00
2019-03-23T17:17:59.296Z,95.20
2019-03-23T17:20:29.537Z,97.00
2019-03-23T17:22:58.368Z,99.70
2019-03-23T17:25:30.701Z,99.90
2019-03-23T17:27:59.744Z,99.90
2019-03-23T17:30:29.108Z,99.90
2019-03-23T17:32:58.033Z,99.90
2019-03-23T17:35:28.322Z,99.90
2019-03-23T17:37:57.984Z,99.90
2019-03-23T17:40:26.882Z,99.90
2019-03-23T17:43:05.565Z,99.90
2019-03-23T17:45:27.379Z,99.90
2019-03-23T17:47:59.367Z,99.90
2019-03-23T17:50:31.863Z,99.90
2019-03-23T17:53:00.807Z,99.90
2019-03-23T17:55:29.647Z,99.90
2019-03-23T17:57:59.101Z,99.90
2019-03-23T18:00:29.744Z,99.90
2019-03-23T18:02:59.007Z,99.90
2019-03-23T18:05:27.831Z,99.90
2019-03-23T18:07:57.494Z,99.90
2019-03-23T18:10:28.281Z,99.90
2019-03-23T18:12:57.908Z,99.90
2019-03-23T18:15:26.657Z,99.90
2019-03-23T18:17:55.400Z,99.90
2019-03-23T18:20:24.745Z,99.90
2019-03-23T18:22:53.471Z,99.90
2019-03-23T18:25:23.254Z,99.90
2019-03-23T18:27:52.021Z,99.90
2019-03-23T18:30:35.529Z,99.90
2019-03-23T18:33:05.112Z,99.90
2019-03-23T18:35:35.186Z,99.90
2019-03-23T18:38:04.489Z,99.90
2019-03-23T18:40:34.337Z,99.90
2019-03-23T18:43:04.370Z,99.90
2019-03-23T18:45:35.715Z,99.90
2019-03-23T18:48:06.594Z,99.90
2019-03-23T18:50:36.406Z,99.90
2019-03-23T18:53:05.586Z,99.90
2019-03-23T18:55:34.778Z,99.90
2019-03-23T18:58:03.859Z,99.90
2019-03-23T19:00:42.220Z,99.90
2019-03-23T19:03:11.469Z,99.90
2019-03-23T19:05:40.475Z,99.90
2019-03-23T19:08:11.759Z,99.90
2019-03-23T19:10:41.393Z,99.90
2019-03-23T19:13:11.612Z,99.90
2019-03-23T19:15:40.385Z,99.90
2019-03-23T19:18:09.462Z,99.90
2019-03-23T19:20:38.553Z,99.90
2019-03-23T19:23:08.998Z,99.90
2019-03-23T19:25:37.776Z,99.90
2019-03-23T19:28:07.414Z,99.90
2019-03-23T19:30:36.517Z,99.90
2019-03-23T19:33:06.350Z,99.90
2019-03-23T19:35:36.475Z,99.90
2019-03-23T19:38:06.150Z,99.90
2019-03-23T19:40:35.038Z,99.90
2019-03-23T19:43:03.978Z,99.90
2019-03-23T19:45:35.570Z,99.90
2019-03-23T19:48:04.664Z,99.90
2019-03-23T19:50:34.116Z,99.90
2019-03-23T19:53:03.473Z,99.90
2019-03-23T19:55:34.627Z,99.90
2019-03-23T19:58:03.725Z,99.90
2019-03-23T20:00:33.721Z,99.90
2019-03-23T20:03:03.354Z,99.90
2019-03-23T20:05:32.676Z,99.90
2019-03-23T20:08:01.500Z,99.90
2019-03-23T20:10:30.474Z,99.90
2019-03-23T20:13:00.112Z,99.90
2019-03-23T20:15:29.138Z,99.90
2019-03-23T20:17:58.620Z,99.90
2019-03-23T20:20:27.738Z,99.90
2019-03-23T20:22:57.665Z,99.90
2019-03-23T20:25:26.422Z,99.90
2019-03-23T20:27:55.808Z,99.90
2019-03-23T20:30:24.598Z,99.90
2019-03-23T20:32:55.576Z,99.90
2019-03-23T20:35:24.769Z,99.90
2019-03-23T20:37:54.514Z,99.90
2019-03-23T20:40:23.654Z,99.90
2019-03-23T20:42:53.409Z,99.90
2019-03-23T20:45:29.902Z,99.90
2019-03-23T20:47:59.187Z,99.90
2019-03-23T20:50:28.138Z,99.90
2019-03-23T20:52:57.377Z,99.90
2019-03-23T20:55:28.633Z,99.90
2019-03-23T20:57:57.716Z,99.90
2019-03-23T21:00:28.095Z,99.90
2019-03-23T21:02:57.682Z,99.90
2019-03-23T21:05:33.771Z,99.90
2019-03-23T21:07:57.765Z,99.90
2019-03-23T21:10:26.963Z,99.90
2019-03-23T21:12:56.126Z,99.90
2019-03-23T21:15:25.120Z,99.90
2019-03-23T21:17:55.174Z,99.90
2019-03-23T21:20:24.111Z,99.90
2019-03-23T21:22:53.204Z,99.90
2019-03-23T21:25:25.673Z,99.90
2019-03-23T21:27:55.164Z,99.90
2019-03-23T21:30:24.090Z,99.90
2019-03-23T21:32:54.381Z,99.90
2019-03-23T21:35:23.754Z,99.90
2019-03-23T21:37:53.134Z,99.90
2019-03-23T21:40:22.174Z,99.90
2019-03-23T21:42:52.278Z,99.90
2019-03-23T21:45:21.746Z,99.90
2019-03-23T21:47:50.846Z,99.90
2019-03-23T21:50:20.118Z,99.90
2019-03-23T21:52:49.068Z,99.90
2019-03-23T21:55:18.574Z,99.90
2019-03-23T21:57:48.513Z,99.90
2019-03-23T22:00:30.771Z,99.90
2019-03-23T22:02:59.857Z,99.90
2019-03-23T22:05:28.709Z,99.90
2019-03-23T22:07:58.011Z,99.90
2019-03-23T22:10:28.660Z,99.90
2019-03-23T22:12:57.608Z,99.90
2019-03-23T22:15:31.051Z,99.90
2019-03-23T22:18:00.146Z,99.90
2019-03-23T22:20:29.965Z,99.90
2019-03-23T22:22:58.853Z,99.90
2019-03-23T22:25:27.960Z,99.90
2019-03-23T22:27:57.436Z,99.90
2019-03-23T22:30:26.230Z,99.90
2019-03-23T22:32:55.297Z,99.90
2019-03-23T22:35:25.929Z,99.90
2019-03-23T22:37:55.861Z,99.90
2019-03-23T22:40:24.721Z,99.90
2019-03-23T22:42:53.495Z,99.90
2019-03-23T22:45:22.345Z,99.90
2019-03-23T22:47:52.978Z,99.90
2019-03-23T22:50:21.954Z,99.90
2019-03-23T22:52:52.482Z,99.90
2019-03-23T22:55:22.771Z,99.90
2019-03-23T22:57:53.474Z,99.90
2019-03-23T23:00:32.799Z,99.90
2019-03-23T23:03:02.049Z,99.90
2019-03-23T23:05:31.293Z,99.90
2019-03-23T23:08:01.891Z,99.90
2019-03-23T23:10:31.148Z,99.90
2019-03-23T23:13:00.050Z,99.90
2019-03-23T23:15:29.580Z,99.90
2019-03-23T23:17:58.853Z,99.90
2019-03-23T23:20:28.283Z,99.90
2019-03-23T23:22:57.120Z,99.90
2019-03-23T23:25:26.334Z,99.90
2019-03-23T23:27:55.204Z,99.90
2019-03-23T23:30:24.006Z,99.90
2019-03-23T23:32:53.787Z,99.90
2019-03-23T23:35:25.690Z,99.90
2019-03-23T23:37:54.989Z,99.90
2019-03-23T23:40:24.627Z,99.90
2019-03-23T23:42:56.777Z,99.90
2019-03-23T23:45:26.099Z,99.90
2019-03-23T23:47:55.286Z,99.90
2019-03-23T23:50:24.531Z,99.90
2019-03-23T23:52:53.658Z,99.90
2019-03-23T23:55:22.413Z,99.90
2019-03-23T23:57:51.751Z,99.90
